Japan Airlines Virtual Airport Information Service

San Diego International Airport

ICAO: KSAN Country: United States
Latitude: 32.7336 Longitude: -117.189
Latest Arrival : JAL66 (RJAA-KSAN) Latest Departure : JBU90 (KSAN-KJFK)


WX CaptureLIVE
Data provided by noaa.gov | Fetched at 14:32:55

METAR : KSAN 231351Z 00000KT 10SM SCT016 BKN023 15/11 A3003 RMK AO2 SLP169 T01500111

TAF : KSAN 231139Z 2312/2418 VRB05KT P6SM BKN025 OVC030 TEMPO 2312/2313 4SM -RA OVC015 FM231900 26010KT P6SM SCT020 BKN025 FM232300 27010KT P6SM BKN020 BKN025 FM240200 26005KT P6SM BKN015 BKN020 FM241600 VRB04KT P6SM SCT015 BKN020


Runway Data for KSAN
Data provided by openaviationdata.com

Runway ID Mag Var Hdg Length Elevation Surface ILS Freq ILS Id ILS Slope
9 13 92° 9394 ft 15 ft Concrete 110.9 ISAN 3
27 13 272° 9394 ft 15 ft Concrete 110.9 IUBR 0

San Diego International Airport, United States
Use only for reference purposes



Not for navigational purposes.